CheckWX is a tool to help pilots better visualize weather data.  It is not intended as a substitute for an official pre-flight weather briefing.

16:33:33 UTC

KFHR METAR
Friday Harbor Airport
Friday Harbor, Washington, USA
Current

41 mins ago

KFHR 091553Z AUTO 12003KT 6SM BR BKN002 OVC026 13/12 A3001 RMK AO2 RAE04 SLP161 P0000 T01280122
Observed
Jul-9 @ 15:53 UTC
Wind
  • 120° at 3 KTS
Visibility
6 SM
Flight Rules
LIFR
Conditions
Mist
Cloud Levels
  • Broken at 200' AGL
  • Overcast at 2,600' AGL
Temperature
13°C / 55°F
Dewpoint
12°C / 54°F
Humidity
94%
Altimeter
30.01" Hg
Pressure
1016.22 hPa
Current Rain
0.01"
Previous

1 hour ago

KFHR 091518Z AUTO 00000KT 8SM BKN002 BKN013 OVC060 12/12 A3000 RMK AO2 RAE04 P0000 T01220117
Observed
Jul-9 @ 15:18 UTC
Visibility
8 SM
Flight Rules
LIFR
Cloud Levels
  • Broken at 200' AGL
  • Broken at 1,300' AGL
  • Overcast at 6,000' AGL
Temperature
12°C / 54°F
Dewpoint
12°C / 54°F
Humidity
100%
Altimeter
30" Hg
Pressure
1015.92 hPa
Current Rain
0.01"
Previous

1 hour ago

KFHR 091508Z AUTO 00000KT 6SM BR SCT001 BKN013 OVC060 12/12 A3000 RMK AO2 RAE04 P0000 T01220117
Observed
Jul-9 @ 15:08 UTC
Visibility
6 SM
Flight Rules
MVFR
Conditions
Mist
Cloud Levels
  • Scattered at 100' AGL
  • Broken at 1,300' AGL
  • Overcast at 6,000' AGL
Temperature
12°C / 54°F
Dewpoint
12°C / 54°F
Humidity
100%
Altimeter
30" Hg
Pressure
1015.92 hPa
Current Rain
0.01"